首页
METAR-TAF:

METAR-TAF

机场 :

Oscoda-Wurtsmith Airport

Oscoda, 密歇根州, 美国

纬度: 44-27N, 经度: 083-22W, 海拔: 193米

当前天气观测

该预报发布于15分钟前的08:35 UTC
风速13节,风向西转西北,有时为19节阵风
温度 -2°C
湿度 74%
气压 1003 hPa
能見度: 16.1公里
多云层高于2600英尺
多云层高于3300英尺
阴天层高于4900英尺

METAR: KOSC 100835Z AUTO 30013G19KT 10SM BKN026 BKN033 OVC049 M02/M06 A2963 RMK AO2 T10171057

时间: 03:50 (08:50 UTC)


TAF: 丢失

超过4000个机场的气象观测和天气预报(METAR&TAF报告)。

可查询的气象台以黄色和红色小点在地图上表示。

将鼠标移到小点上方,可查看气象台名称。

然后点击查看天气观测和预报。

如需切换地图:点击带黑十字的绿色按钮放大地图;点击带横线的绿色按钮缩小地图;或者点击绿色箭头查看邻近地区的地图。


METAR-TAF: